Minneapolis, Minnesota
Traffic Map
Current Weather Conditions
Minneapolis, Minnesota
Few Clouds
Few Clouds
48°
Feels Like: 42°
Wind Chill: 42° Ceiling: Unl
Heat Index: 48° Visibility: 10mi
Dew Point: 26° Wind: 14mph
Humidity: 42% Direction: 300° (WNW)
Pressure: 29.9in Gusts: 25mph
Raw Report DataKMSP 300053Z 30012G22KT 10SM FEW065 09/M03 A2990 RMK AO2 PK WND 31030/0013 SLP132 T00891033
Traffic Incident Summary
Active as of:
Severity:
Category:
InformationThere was an issue retrieving the traffic information for this location. Please try a different location or try again shortly.
Advertisements
Track Severe Weather on mobile